Time;durP1;ratioP1;P1;durP2;ratioP2;P2;SDS_P1;SDS_P2;PMS_P1;PMS_P2;Temp;Humidity;BMP_temperature;BMP_pressure;BME280_temperature;BME280_humidity;BME280_pressure;Samples;Min_cycle;Max_cycle;Signal;HPM_P1;HPM_P2
2022/06/01 00:01:05;;;;;;;29.35;24.20;;;8.70;99.90;;;9.24;100.00;99674.16;5061485;27;130277;-76
2022/06/01 00:03:37;;;;;;;28.42;22.50;;;8.70;99.90;;;9.11;100.00;99674.91;5050800;27;128736;-77
2022/06/01 00:06:06;;;;;;;29.60;23.30;;;8.70;99.90;;;9.05;100.00;99676.91;5068460;27;119958;-78
2022/06/01 00:08:36;;;;;;;28.92;23.50;;;8.60;99.90;;;9.04;100.00;99674.47;5050639;27;118637;-77
2022/06/01 00:11:05;;;;;;;28.30;22.90;;;8.60;99.90;;;9.02;100.00;99682.09;5048008;27;129811;-77
2022/06/01 00:13:34;;;;;;;27.58;22.27;;;8.60;99.90;;;9.00;100.00;99683.19;5049247;27;128766;-76
2022/06/01 00:16:05;;;;;;;32.58;22.83;;;8.60;99.90;;;8.95;100.00;99683.28;5061940;27;119946;-77
2022/06/01 00:18:33;;;;;;;28.77;23.13;;;8.60;99.90;;;8.85;100.00;99682.66;5061587;27;119805;-75
2022/06/01 00:21:03;;;;;;;27.95;22.08;;;8.50;99.90;;;8.80;100.00;99680.81;5061354;27;129805;-75
2022/06/01 00:23:32;;;;;;;31.30;23.52;;;8.50;99.90;;;8.77;100.00;99676.00;5045541;27;129472;-77
2022/06/01 00:26:00;;;;;;;28.25;23.05;;;8.50;99.90;;;8.77;100.00;99684.13;5061270;27;119988;-77
2022/06/01 00:28:29;;;;;;;30.48;24.30;;;8.40;99.90;;;8.73;100.00;99678.50;5064106;27;120331;-76
2022/06/01 00:30:58;;;;;;;32.45;25.05;;;8.40;99.90;;;8.75;100.00;99683.63;5060454;27;131222;-77
2022/06/01 00:33:28;;;;;;;31.35;23.20;;;8.40;99.90;;;8.69;100.00;99682.09;5060596;27;129545;-77
2022/06/01 00:35:56;;;;;;;29.23;24.15;;;8.30;99.90;;;8.68;100.00;99675.88;5059601;27;123016;-75
2022/06/01 00:38:25;;;;;;;30.33;24.42;;;8.30;99.90;;;8.71;100.00;99677.19;5045665;27;121704;-75
2022/06/01 00:40:53;;;;;;;27.75;23.63;;;8.30;99.90;;;8.72;100.00;99681.50;5042664;27;129983;-75
2022/06/01 00:43:29;;;;;;;32.25;24.63;;;8.30;99.90;;;8.64;100.00;99675.66;5061326;27;130041;-74
2022/06/01 00:45:57;;;;;;;29.58;24.40;;;8.20;99.90;;;8.62;100.00;99671.66;5061138;27;120189;-76
2022/06/01 00:48:29;;;;;;;30.58;25.27;;;8.20;99.90;;;8.56;100.00;99668.22;5042623;27;120626;-77
2022/06/01 00:50:58;;;;;;;30.80;24.70;;;8.20;99.90;;;8.49;100.00;99670.47;5061217;27;129798;-77
2022/06/01 00:53:33;;;;;;;32.40;25.55;;;8.20;99.90;;;8.45;100.00;99664.06;5043612;27;127985;-77
2022/06/01 00:56:07;;;;;;;31.13;24.67;;;8.20;99.90;;;8.48;100.00;99662.66;5043747;27;118913;-76
2022/06/01 00:58:41;;;;;;;28.73;23.70;;;8.10;99.90;;;8.51;100.00;99668.28;5008171;27;119450;-75
2022/06/01 01:01:15;;;;;;;33.60;25.30;;;8.00;99.90;;;8.54;100.00;99656.88;5038186;27;129755;-76
2022/06/01 01:03:46;;;;;;;31.23;24.38;;;8.00;99.90;;;8.45;100.00;99655.94;5039658;27;129717;-75
2022/06/01 01:06:19;;;;;;;32.55;26.35;;;8.00;99.90;;;8.37;100.00;99651.16;5022192;27;120125;-76
2022/06/01 01:08:49;;;;;;;31.63;25.52;;;8.00;99.90;;;8.39;100.00;99660.59;5025425;27;118612;-76
2022/06/01 01:11:22;;;;;;;30.25;24.75;;;8.00;99.90;;;8.39;100.00;99657.88;5039902;27;130209;-77
2022/06/01 01:13:53;;;;;;;30.73;25.17;;;7.90;99.90;;;8.35;100.00;99656.06;5021638;27;129891;-75
2022/06/01 01:16:24;;;;;;;31.33;22.80;;;8.00;99.90;;;8.33;100.00;99650.13;5025259;27;118898;-76
2022/06/01 01:18:56;;;;;;;34.00;25.38;;;8.00;99.90;;;8.32;100.00;99648.53;5024632;27;120429;-76
2022/06/01 01:21:38;;;;;;;31.60;25.75;;;8.00;99.90;;;8.30;100.00;99650.72;5007609;27;128697;-74
2022/06/01 01:24:15;;;;;;;33.13;24.73;;;8.00;99.90;;;8.36;100.00;99644.94;5041293;27;128286;-75
2022/06/01 01:26:50;;;;;;;30.80;25.27;;;7.90;99.90;;;8.36;100.00;99638.75;5009897;27;120389;-74
2022/06/01 01:29:36;;;;;;;34.38;25.70;;;7.90;99.90;;;8.38;100.00;99642.78;5044240;27;121718;-75
2022/06/01 01:32:07;;;;;;;31.45;26.33;;;7.90;99.90;;;8.38;100.00;99641.94;5043720;27;130247;-75
2022/06/01 01:34:37;;;;;;;31.30;24.90;;;7.90;99.90;;;8.36;100.00;99644.16;5042916;27;129682;-74
2022/06/01 01:37:14;;;;;;;31.65;25.17;;;7.90;99.90;;;8.33;100.00;99644.72;5042339;27;119701;-75
2022/06/01 01:39:43;;;;;;;34.53;26.55;;;7.90;99.90;;;8.34;100.00;99646.34;5027385;27;117652;-77
2022/06/01 01:42:13;;;;;;;31.25;24.17;;;7.90;99.90;;;8.35;100.00;99642.53;5044629;27;129958;-77
2022/06/01 01:44:47;;;;;;;29.13;23.92;;;7.80;99.90;;;8.36;100.00;99649.56;5043222;27;129539;-76
2022/06/01 01:47:16;;;;;;;27.50;22.20;;;7.80;99.90;;;8.32;100.00;99648.53;5039027;27;119587;-76
2022/06/01 01:49:44;;;;;;;26.77;23.27;;;7.80;99.90;;;8.24;100.00;99641.88;5039449;27;119963;-76
2022/06/01 01:52:16;;;;;;;26.95;22.42;;;7.70;99.90;;;8.25;100.00;99644.28;5039741;27;130013;-74
2022/06/01 01:54:53;;;;;;;27.50;20.40;;;7.70;99.90;;;8.28;100.00;99642.91;5038744;27;130577;-74
2022/06/01 01:57:37;;;;;;;24.45;21.15;;;7.70;99.90;;;8.34;100.00;99640.94;5024242;27;118426;-75
2022/06/01 02:00:15;;;;;;;28.90;21.73;;;7.70;99.90;;;8.33;100.00;99642.03;5036830;27;120022;-77
2022/06/01 02:02:56;;;;;;;24.50;20.75;;;7.70;99.90;;;8.35;100.00;99639.81;5038480;27;130171;-77
2022/06/01 02:08:39;;;;;;;23.63;18.27;;;7.70;99.90;;;8.42;100.00;99642.97;4982295;28;119380;-76
2022/06/01 02:14:21;;;;;;;23.38;19.75;;;7.70;99.90;;;8.56;100.00;99643.88;4938763;28;130055;-76
2022/06/01 02:17:01;;;;;;;27.27;18.98;;;7.80;99.90;;;8.56;100.00;99633.03;4936386;28;130023;-77
2022/06/01 02:19:35;;;;;;;26.85;18.30;;;7.80;99.90;;;8.53;100.00;99636.34;4947003;28;121604;-75
2022/06/01 02:22:05;;;;;;;21.88;17.58;;;7.80;99.90;;;8.59;100.00;99637.88;4995910;28;121957;-76
2022/06/01 02:24:34;;;;;;;22.35;18.13;;;7.90;99.90;;;8.72;100.00;99641.72;4995361;28;130222;-75
2022/06/01 02:27:02;;;;;;;23.40;18.67;;;8.00;99.90;;;8.75;100.00;99648.44;4982093;28;128578;-75
2022/06/01 02:29:36;;;;;;;20.20;17.88;;;8.00;99.90;;;8.82;100.00;99651.59;4996110;28;119256;-76
2022/06/01 02:32:06;;;;;;;19.00;16.60;;;8.10;99.90;;;8.90;100.00;99650.91;4985198;28;118757;-75
2022/06/01 02:34:37;;;;;;;21.33;17.20;;;8.10;99.90;;;8.90;100.00;99642.78;4987187;28;129239;-75
2022/06/01 02:37:09;;;;;;;21.17;16.50;;;8.20;99.90;;;8.93;100.00;99654.94;5000540;28;129593;-75
2022/06/01 02:39:43;;;;;;;19.58;16.48;;;8.20;99.90;;;8.98;100.00;99657.53;5022204;27;120812;-76
2022/06/01 02:42:28;;;;;;;22.85;16.83;;;8.20;99.90;;;9.04;100.00;99648.25;5041983;27;120290;-75
2022/06/01 02:45:00;;;;;;;17.98;15.18;;;8.30;99.90;;;9.08;100.00;99656.56;5022270;27;130569;-76
2022/06/01 02:47:32;;;;;;;15.55;13.25;;;8.30;99.90;;;9.21;100.00;99658.50;5023432;27;129943;-74
2022/06/01 02:50:01;;;;;;;19.38;15.45;;;8.40;99.90;;;9.35;100.00;99659.31;5027651;27;118921;-77
2022/06/01 02:52:30;;;;;;;16.15;14.18;;;8.50;99.90;;;9.52;100.00;99663.31;5042334;27;119636;-75
2022/06/01 02:54:59;;;;;;;16.30;13.73;;;8.60;99.90;;;9.74;100.00;99670.78;5041362;27;129770;-76
2022/06/01 02:57:28;;;;;;;16.10;13.40;;;8.70;99.90;;;9.93;100.00;99662.53;5041416;27;129717;-76
2022/06/01 02:59:57;;;;;;;13.88;12.35;;;8.90;99.90;;;10.04;99.51;99668.56;5025447;27;119809;-74
2022/06/01 03:02:26;;;;;;;15.75;12.82;;;9.00;99.90;;;10.16;98.54;99670.72;5042189;27;119624;-74
2022/06/01 03:04:55;;;;;;;14.63;12.40;;;9.10;99.90;;;10.55;99.16;99672.06;5041648;27;129945;-76
2022/06/01 03:07:23;;;;;;;12.25;9.63;;;9.40;99.90;;;11.80;99.97;99688.44;5041791;27;130200;-76
2022/06/01 03:09:52;;;;;;;12.27;9.50;;;10.30;99.90;;;13.25;93.36;99691.09;5040962;27;122087;-76
2022/06/01 03:12:20;;;;;;;12.45;8.10;;;11.40;99.90;;;14.62;86.99;99696.53;5043288;27;123275;-77
2022/06/01 03:14:49;;;;;;;9.75;7.88;;;12.00;7.60;;;16.02;77.74;99695.06;5031206;27;129990;-78
2022/06/01 03:17:18;;;;;;;9.00;6.13;;;12.40;1.00;;;16.88;68.96;99697.63;5049566;27;130159;-78
2022/06/01 03:19:47;;;;;;;9.88;6.20;;;12.80;1.00;;;16.91;66.66;99687.09;5041689;27;119658;-77
2022/06/01 03:22:15;;;;;;;9.15;6.50;;;13.00;1.00;;;16.54;65.99;99688.00;5026432;27;118117;-75
2022/06/01 03:24:44;;;;;;;11.25;7.40;;;12.80;1.00;;;15.78;68.06;99691.19;5040999;27;130044;-76
2022/06/01 03:27:13;;;;;;;8.95;8.02;;;12.30;1.00;;;15.20;70.64;99682.19;5010055;27;128651;-78
2022/06/01 03:29:41;;;;;;;11.52;8.50;;;11.90;1.00;;;14.87;72.39;99674.78;5042330;27;119660;-76
2022/06/01 03:32:11;;;;;;;10.43;8.88;;;11.70;1.00;;;14.63;73.51;99684.50;5026718;27;119564;-76
2022/06/01 03:34:41;;;;;;;11.57;9.70;;;11.60;1.00;;;14.42;74.99;99680.94;5022115;27;130087;-75
2022/06/01 03:37:09;;;;;;;13.40;9.65;;;11.70;1.00;;;14.17;76.65;99680.78;5041429;27;130042;-75
2022/06/01 03:39:38;;;;;;;12.05;9.38;;;11.70;1.00;;;13.94;78.28;99683.78;5041855;27;119796;-76
2022/06/01 03:42:07;;;;;;;11.95;9.40;;;11.70;1.00;;;13.83;79.72;99677.13;5041545;27;120019;-75
2022/06/01 03:47:22;;;;;;;16.13;10.60;;;11.90;1.00;;;13.87;80.13;99677.25;5041570;27;129511;-75
2022/06/01 03:49:52;;;;;;;14.23;9.95;;;12.10;1.00;;;13.96;79.85;99670.63;5041473;27;119432;-75
2022/06/01 03:52:21;;;;;;;11.77;10.25;;;12.30;1.00;;;13.91;79.87;99670.00;5029661;27;119745;-74
2022/06/01 03:54:50;;;;;;;14.25;11.55;;;12.30;1.00;;;13.99;79.88;99653.59;5020749;28;130192;-77
2022/06/01 03:57:20;;;;;;;11.70;10.52;;;12.50;1.00;;;14.15;78.96;99662.00;5020245;28;129278;-75
2022/06/01 03:59:49;;;;;;;13.88;9.98;;;12.70;1.00;;;14.28;77.24;99654.69;5036455;27;122320;-76
2022/06/01 04:02:18;;;;;;;15.07;11.68;;;12.90;1.00;;;14.54;76.69;99659.16;5048163;27;121760;-75
2022/06/01 04:04:47;;;;;;;13.82;11.10;;;13.10;1.00;;;14.76;75.19;99662.66;5056675;27;130463;-77
2022/06/01 04:07:17;;;;;;;15.60;10.35;;;13.40;1.00;;;14.96;73.41;99667.31;5036995;27;129187;-77
2022/06/01 04:09:45;;;;;;;15.02;10.10;;;13.50;1.00;;;15.18;71.98;99657.13;5035085;27;118673;-75
2022/06/01 04:12:14;;;;;;;12.68;9.57;;;13.70;1.00;;;15.44;71.26;99659.53;5042139;27;119498;-77
2022/06/01 04:14:44;;;;;;;12.05;8.63;;;13.90;1.00;;;15.61;70.05;99664.00;5042378;27;129735;-75
2022/06/01 04:17:13;;;;;;;10.65;8.25;;;14.00;1.00;;;15.82;68.92;99666.69;5011569;27;131836;-76
2022/06/01 04:19:43;;;;;;;11.50;8.45;;;14.20;1.00;;;15.95;68.49;99665.50;5020348;27;119215;-76
2022/06/01 04:22:13;;;;;;;12.65;8.27;;;14.30;99.90;;;16.04;68.00;99667.34;5041436;27;119476;-75
2022/06/01 04:24:43;;;;;;;11.50;8.02;;;14.40;99.90;;;16.20;68.18;99662.75;5005041;27;129733;-76
2022/06/01 04:27:13;;;;;;;11.60;7.97;;;14.70;99.90;;;16.43;67.03;99671.25;5045336;27;133001;-76
2022/06/01 04:29:42;;;;;;;8.43;6.80;;;14.80;99.90;;;16.61;66.07;99666.31;5022301;27;119452;-76
2022/06/01 04:32:14;;;;;;;9.43;6.72;;;15.00;99.90;;;16.80;64.74;99671.13;5008078;27;119752;-73
2022/06/01 04:34:43;;;;;;;9.05;6.50;;;15.10;99.90;;;16.82;63.87;99671.56;5039535;27;129930;-75
2022/06/01 04:37:12;;;;;;;7.85;6.43;;;15.10;99.90;;;16.92;63.36;99670.28;5040052;27;130116;-74
2022/06/01 04:39:42;;;;;;;9.25;6.78;;;15.30;99.90;;;17.10;63.67;99659.03;5025118;27;118581;-76
2022/06/01 04:42:11;;;;;;;8.13;6.00;;;15.40;99.90;;;17.18;63.20;99655.31;5040748;27;119253;-73
2022/06/01 04:44:40;;;;;;;10.13;6.20;;;15.40;99.90;;;17.27;61.96;99657.91;5040381;27;130314;-75
2022/06/01 04:47:10;;;;;;;14.20;6.35;;;15.50;99.90;;;17.43;62.40;99655.94;5021832;27;130257;-74
2022/06/01 04:49:38;;;;;;;8.70;6.25;;;15.60;99.90;;;17.50;61.74;99653.41;5040433;27;121985;-75
2022/06/01 04:52:08;;;;;;;9.30;5.90;;;15.70;99.90;;;17.59;61.37;99656.75;5040443;27;121529;-74
2022/06/01 04:54:37;;;;;;;8.70;5.60;;;15.90;99.90;;;17.73;61.54;99647.25;5025017;27;130470;-76
2022/06/01 04:57:08;;;;;;;8.90;5.25;;;16.00;99.90;;;17.92;60.90;99647.34;5027985;27;128755;-75
2022/06/01 04:59:36;;;;;;;9.02;5.93;;;16.10;99.90;;;18.08;59.92;99657.50;5032555;27;118625;-77
2022/06/01 05:02:05;;;;;;;9.13;6.43;;;16.30;99.90;;;18.16;59.18;99652.97;5027553;27;118866;-79
2022/06/01 05:04:34;;;;;;;9.57;6.50;;;16.40;99.90;;;18.27;59.63;99649.28;5030975;27;128479;-79
2022/06/01 05:07:03;;;;;;;8.57;5.95;;;16.50;99.90;;;18.44;59.83;99647.28;5024591;27;129654;-79
2022/06/01 05:09:32;;;;;;;8.93;5.63;;;16.70;99.90;;;18.60;59.67;99628.75;5045669;27;119819;-78
2022/06/01 05:12:02;;;;;;;9.15;5.50;;;16.80;99.90;;;18.69;58.76;99629.34;5044624;27;119747;-77
2022/06/01 05:14:31;;;;;;;12.02;5.43;;;16.80;99.90;;;18.80;58.83;99626.78;5040232;27;129985;-78
2022/06/01 05:17:00;;;;;;;11.23;5.75;;;16.90;99.90;;;18.91;58.15;99632.53;5027882;27;129295;-76
2022/06/01 05:19:29;;;;;;;13.05;6.07;;;17.00;99.90;;;18.90;57.75;99619.13;5025242;27;119237;-78
2022/06/01 05:21:59;;;;;;;8.65;5.63;;;17.00;99.90;;;19.08;57.39;99625.75;5023693;27;120397;-77
2022/06/01 05:24:27;;;;;;;9.82;6.22;;;17.10;99.90;;;19.21;56.77;99624.44;5041977;27;129954;-77
2022/06/01 05:26:56;;;;;;;12.23;6.45;;;17.30;99.90;;;19.31;56.21;99633.25;5041851;27;129567;-76
2022/06/01 05:29:24;;;;;;;11.70;6.57;;;17.30;99.90;;;19.40;55.40;99626.31;5042054;27;120353;-77
2022/06/01 05:31:54;;;;;;;9.60;5.90;;;17.50;99.90;;;19.33;54.27;99626.19;5041638;27;119565;-77
2022/06/01 05:34:23;;;;;;;9.32;5.95;;;17.60;99.90;;;19.25;54.86;99621.75;5025315;27;128768;-79
2022/06/01 05:36:51;;;;;;;9.23;5.80;;;17.60;99.90;;;19.44;55.32;99625.59;5024440;27;128539;-80
2022/06/01 05:39:19;;;;;;;9.88;5.50;;;17.80;99.90;;;19.67;56.15;99618.09;5041081;27;122204;-78
2022/06/01 05:41:48;;;;;;;13.50;5.88;;;18.00;99.90;;;19.87;54.78;99615.28;5025265;27;121413;-79
2022/06/01 05:44:16;;;;;;;11.88;6.50;;;18.10;99.90;;;19.97;54.38;99611.84;5026303;27;130083;-78
2022/06/01 05:46:45;;;;;;;12.18;5.03;;;18.10;99.90;;;20.06;54.35;99606.88;5022352;27;129674;-79
2022/06/01 05:49:15;;;;;;;9.07;5.05;;;18.20;99.90;;;20.31;53.60;99611.91;5041342;27;119601;-77
2022/06/01 05:51:44;;;;;;;10.65;5.10;;;18.30;99.90;;;20.38;52.89;99606.50;5021623;27;119599;-78
2022/06/01 05:54:12;;;;;;;8.70;4.50;;;18.30;99.90;;;20.46;51.35;99605.41;5042887;27;130215;-78
2022/06/01 05:56:41;;;;;;;11.65;4.53;;;18.30;99.90;;;20.45;52.15;99598.31;5042400;27;129569;-77
2022/06/01 05:59:09;;;;;;;20.20;5.80;;;18.40;99.90;;;20.30;52.49;99599.28;5061069;27;119757;-79
2022/06/01 06:01:37;;;;;;;6.80;3.72;;;18.40;99.90;;;20.39;51.19;99591.53;5063625;27;120438;-77
2022/06/01 06:04:06;;;;;;;11.60;4.53;;;18.40;99.90;;;20.27;50.82;99580.75;5063136;27;130081;-73
2022/06/01 06:06:37;;;;;;;7.35;3.90;;;18.30;99.90;;;20.36;51.69;99581.25;5063400;27;129859;-76
2022/06/01 06:09:08;;;;;;;7.25;4.05;;;18.50;99.90;;;20.37;50.35;99577.34;5048567;27;119581;-73
2022/06/01 06:11:40;;;;;;;6.65;3.90;;;18.50;99.90;;;20.39;51.22;99586.03;5064222;27;119220;-75
2022/06/01 06:14:09;;;;;;;10.32;4.40;;;18.60;99.90;;;20.51;49.84;99586.97;5059245;27;129970;-78
2022/06/01 06:16:43;;;;;;;13.57;4.53;;;18.40;99.90;;;20.53;49.52;99582.63;5041558;27;129709;-77
2022/06/01 06:19:13;;;;;;;8.70;4.22;;;18.50;99.90;;;20.81;50.24;99579.41;5061520;27;120346;-77
2022/06/01 06:21:44;;;;;;;7.68;4.40;;;18.80;99.90;;;20.96;48.71;99587.84;5045694;27;118945;-74
2022/06/01 06:24:15;;;;;;;13.45;4.57;;;18.90;99.90;;;21.24;49.52;99578.22;5059248;27;130914;-76
2022/06/01 06:26:45;;;;;;;13.15;4.40;;;19.10;99.90;;;21.45;48.31;99583.13;5027353;27;130004;-76
2022/06/01 06:29:17;;;;;;;8.95;3.70;;;19.30;99.90;;;21.40;48.31;99589.78;5049650;27;121886;-77
2022/06/01 06:31:46;;;;;;;6.32;3.10;;;19.30;99.90;;;21.21;46.74;99570.69;5059048;27;122348;-76
2022/06/01 06:34:15;;;;;;;6.22;3.00;;;19.00;99.90;;;21.06;46.03;99567.81;5044034;27;130319;-78
2022/06/01 06:36:45;;;;;;;9.88;3.70;;;18.90;99.90;;;21.19;46.20;99571.88;5038803;27;129384;-76
2022/06/01 06:39:14;;;;;;;6.68;3.67;;;19.00;99.90;;;21.26;47.03;99565.63;5054901;27;119558;-73
2022/06/01 06:41:44;;;;;;;6.85;3.10;;;19.20;99.90;;;21.25;46.33;99566.00;5058956;27;120114;-75
2022/06/01 06:44:12;;;;;;;15.98;4.90;;;19.20;99.90;;;21.26;46.24;99559.31;5044085;27;129716;-79
2022/06/01 06:46:41;;;;;;;19.77;4.50;;;19.20;99.90;;;21.15;45.86;99560.03;5059224;27;129752;-72
2022/06/01 06:49:09;;;;;;;15.07;4.15;;;19.20;99.90;;;21.41;46.00;99549.97;5059247;27;120634;-79
2022/06/01 06:51:38;;;;;;;4.40;2.92;;;19.30;99.90;;;21.56;45.33;99556.41;5045018;27;118436;-77
2022/06/01 06:54:08;;;;;;;4.38;2.60;;;19.60;99.90;;;21.52;44.16;99545.34;5043190;27;128569;-77
2022/06/01 06:56:37;;;;;;;4.70;2.70;;;19.50;99.90;;;21.56;45.14;99541.81;5059167;27;130119;-76
2022/06/01 06:59:06;;;;;;;6.30;2.97;;;19.40;99.90;;;21.46;46.45;99546.84;5059985;27;119758;-78
2022/06/01 07:01:34;;;;;;;8.98;3.15;;;19.40;99.90;;;21.49;45.75;99540.59;5041333;27;119411;-72
2022/06/01 07:04:02;;;;;;;5.97;3.00;;;19.60;99.90;;;21.47;44.72;99542.91;5058425;27;129969;-77
2022/06/01 07:06:32;;;;;;;5.20;3.00;;;19.60;99.90;;;21.60;44.67;99542.59;5059724;27;131061;-74
2022/06/01 07:09:00;;;;;;;5.70;2.70;;;19.80;99.90;;;21.62;43.01;99543.03;5043991;27;119671;-75
2022/06/01 07:11:32;;;;;;;4.63;2.78;;;19.50;99.90;;;21.60;44.18;99548.94;5059215;27;119720;-79
2022/06/01 07:14:01;;;;;;;3.67;2.70;;;19.60;99.90;;;21.75;45.35;99551.78;5059243;27;130449;-76
2022/06/01 07:16:33;;;;;;;8.05;3.60;;;19.60;99.90;;;21.77;45.75;99528.13;5059628;27;129939;-76
2022/06/01 07:19:04;;;;;;;6.55;3.50;;;19.60;99.90;;;21.95;45.32;99532.94;5046808;27;121966;-77
2022/06/01 07:21:36;;;;;;;6.15;3.17;;;19.80;99.90;;;22.07;44.74;99535.38;5062716;27;122159;-77
2022/06/01 07:24:06;;;;;;;6.88;3.00;;;19.90;99.90;;;22.07;43.97;99535.38;5062887;27;129824;-74
2022/06/01 07:26:39;;;;;;;6.05;3.13;;;20.00;99.90;;;22.02;44.98;99528.25;5062431;27;130018;-75
2022/06/01 07:29:08;;;;;;;5.25;2.90;;;20.00;99.90;;;21.93;45.51;99535.31;5038403;27;118951;-77
2022/06/01 07:31:37;;;;;;;12.48;3.80;;;19.90;99.90;;;22.27;45.33;99522.03;5047893;27;119077;-78
2022/06/01 07:34:06;;;;;;;13.00;3.90;;;20.20;99.90;;;22.51;44.47;99531.56;5047790;27;130397;-78
2022/06/01 07:36:35;;;;;;;5.60;2.65;;;20.30;99.90;;;22.32;43.14;99523.66;5027122;27;128492;-77
2022/06/01 07:44:41;;;;;;;5.20;2.80;;;19.90;99.90;;;22.26;42.78;99521.22;5041901;27;129987;-76
2022/06/01 07:47:11;;;;;;;9.15;3.38;;;20.20;99.90;;;22.34;42.03;99518.50;5027037;27;128932;-76
2022/06/01 07:49:40;;;;;;;5.13;2.47;;;20.20;99.90;;;22.53;42.42;99511.81;5042615;27;119661;-78
2022/06/01 07:52:11;;;;;;;5.32;2.50;;;20.40;99.90;;;22.76;42.37;99514.25;5048711;27;120250;-79
2022/06/01 07:54:42;;;;;;;4.75;2.53;;;20.60;99.90;;;22.73;40.38;99503.97;5046546;27;130666;-76
2022/06/01 07:57:12;;;;;;;4.47;2.20;;;20.40;99.90;;;22.90;40.27;99507.91;5061726;27;130223;-79
2022/06/01 07:59:41;;;;;;;6.22;2.60;;;20.50;99.90;;;23.08;39.96;99502.41;5030362;27;118424;-78
2022/06/01 08:02:10;;;;;;;4.07;2.10;;;20.80;99.90;;;23.17;39.64;99505.59;5062447;27;119786;-76
2022/06/01 08:04:39;;;;;;;5.60;2.40;;;20.80;99.90;;;23.28;40.15;99489.75;5061482;27;129899;-75
2022/06/01 08:07:08;;;;;;;6.28;2.42;;;20.80;99.90;;;22.97;39.50;99486.59;5061424;27;129748;-79
2022/06/01 08:09:36;;;;;;;4.43;2.60;;;20.40;99.90;;;23.14;39.52;99500.84;5045881;27;121698;-78
2022/06/01 08:14:53;;;;;;;4.30;2.22;;;20.70;99.90;;;23.98;39.05;99486.41;5046843;27;128553;-76
2022/06/01 08:17:21;;;;;;;8.20;2.90;;;21.30;99.90;;;23.84;38.95;99481.72;5059981;27;129792;-77
2022/06/01 08:19:49;;;;;;;6.38;2.72;;;21.00;99.90;;;24.16;38.67;99485.50;5062524;27;120007;-77
2022/06/01 08:22:18;;;;;;;4.30;2.50;;;21.10;99.90;;;24.35;37.57;99476.66;5062102;27;119902;-78
2022/06/01 08:24:47;;;;;;;5.25;2.65;;;21.30;99.90;;;24.45;37.21;99479.78;5061488;27;129935;-79
2022/06/01 08:27:15;;;;;;;4.35;2.00;;;21.50;99.90;;;24.22;36.08;99479.13;5061587;27;130064;-76
2022/06/01 08:29:44;;;;;;;4.35;2.20;;;21.50;99.90;;;23.99;37.37;99481.63;5037333;27;119215;-79
2022/06/01 08:32:14;;;;;;;5.88;2.47;;;21.40;99.90;;;24.64;36.14;99472.97;5042677;27;119379;-77
2022/06/01 08:34:43;;;;;;;5.32;2.40;;;21.60;99.90;;;24.88;35.75;99479.50;5039873;27;130443;-74
2022/06/01 08:37:11;;;;;;;13.43;2.90;;;21.40;99.90;;;24.72;35.23;99483.59;5041872;27;130373;-75
2022/06/01 08:39:40;;;;;;;3.42;2.03;;;21.40;99.90;;;24.75;34.43;99474.44;5025879;27;118249;-75
2022/06/01 08:42:13;;;;;;;5.78;2.25;;;21.40;99.90;;;24.90;33.54;99471.53;5042500;27;119134;-78
2022/06/01 08:44:45;;;;;;;5.95;2.65;;;21.40;99.90;;;25.55;34.15;99477.28;5043119;27;130611;-78
2022/06/01 08:47:25;;;;;;;4.00;2.40;;;22.20;99.90;;;25.79;33.20;99469.09;5028230;27;128334;-80
2022/06/01 08:49:56;;;;;;;4.78;2.08;;;22.30;99.90;;;25.92;32.32;99463.75;5026518;27;119246;-79
2022/06/01 08:52:26;;;;;;;3.65;1.98;;;22.30;99.90;;;25.50;33.29;99457.50;5022136;27;120403;-77
2022/06/01 08:54:54;;;;;;;3.63;2.30;;;21.80;99.90;;;25.68;33.58;99446.97;5040159;27;130379;-76
2022/06/01 08:57:28;;;;;;;4.32;1.95;;;22.10;99.90;;;26.05;32.77;99442.53;5024812;27;129199;-74
2022/06/01 09:00:05;;;;;;;2.78;1.80;;;22.10;99.90;;;25.89;33.07;99454.25;5040791;27;122851;-77
2022/06/01 09:02:49;;;;;;;3.28;1.83;;;22.30;99.90;;;26.04;32.73;99452.09;5008515;27;120825;-79
2022/06/01 09:05:26;;;;;;;4.40;1.95;;;22.60;99.90;;;26.13;33.79;99457.13;5039967;27;131170;-78
2022/06/01 09:08:01;;;;;;;4.25;2.13;;;22.40;99.90;;;26.04;31.38;99446.53;5025321;27;128885;-77
2022/06/01 09:10:56;;;;;;;3.90;1.80;;;22.10;99.90;;;25.83;32.54;99448.34;5040115;27;119584;-77
2022/06/01 09:13:32;;;;;;;2.88;1.80;;;22.20;99.90;;;25.95;31.94;99444.25;5025647;27;118198;-78
2022/06/01 09:16:06;;;;;;;4.50;2.15;;;22.30;99.90;;;25.73;32.54;99438.19;5039731;27;130017;-76
2022/06/01 09:18:41;;;;;;;3.08;1.85;;;22.10;99.90;;;25.60;33.58;99428.81;5040286;27;129446;-77
2022/06/01 09:24:33;;;;;;;3.17;1.95;;;22.00;99.90;;;25.26;34.81;99435.13;4944605;28;119450;-78
2022/06/01 09:27:04;;;;;;;3.20;1.90;;;22.00;99.90;;;25.51;32.02;99440.44;4942833;28;129771;-77
2022/06/01 09:29:35;;;;;;;3.40;1.83;;;22.00;99.90;;;25.25;31.89;99441.88;4973196;28;130283;-76
2022/06/01 09:32:07;;;;;;;3.97;1.90;;;22.00;99.90;;;25.88;32.98;99446.31;5038806;27;119291;-74
2022/06/01 09:34:43;;;;;;;3.45;2.10;;;22.50;99.90;;;26.10;32.21;99439.31;5060198;27;119485;-77
2022/06/01 09:37:20;;;;;;;3.17;1.90;;;23.00;99.90;;;25.59;33.99;99443.91;5045024;27;128928;-78
2022/06/01 09:39:53;;;;;;;4.50;2.17;;;22.30;99.90;;;25.83;32.54;99442.00;5044109;27;129554;-78
2022/06/01 09:42:30;;;;;;;3.85;2.15;;;22.40;99.90;;;26.60;32.41;99439.75;5045055;27;119176;-76
2022/06/01 09:45:00;;;;;;;5.45;1.88;;;23.20;99.90;;;27.42;30.90;99441.09;5061430;27;120260;-76
2022/06/01 09:47:39;;;;;;;2.33;1.50;;;23.90;99.90;;;27.19;29.06;99439.16;5045160;27;128847;-80
2022/06/01 09:50:29;;;;;;;8.52;2.08;;;23.20;99.90;;;27.43;29.47;99437.13;5041875;27;131097;-78
2022/06/01 09:53:13;;;;;;;4.18;1.67;;;23.80;99.90;;;27.39;28.11;99432.81;5059106;27;121963;-77
2022/06/01 09:55:53;;;;;;;3.53;1.73;;;23.20;99.90;;;26.77;29.85;99435.94;5041701;27;121720;-75
2022/06/01 10:07:05;;;;;;;3.55;1.88;;;22.30;99.90;;;25.69;32.24;99426.31;5059722;27;119246;-76
2022/06/01 10:09:36;;;;;;;4.05;2.38;;;22.40;99.90;;;25.52;32.38;99407.88;5041364;27;131300;-79
2022/06/01 10:12:34;;;;;;;2.78;1.80;;;22.40;99.90;;;25.72;32.66;99406.03;5024835;27;128627;-76
2022/06/01 10:15:13;;;;;;;4.55;2.17;;;22.60;99.90;;;25.96;31.92;99408.88;5024091;27;118576;-75
2022/06/01 10:17:49;;;;;;;4.03;1.83;;;22.50;99.90;;;25.93;31.83;99404.16;5041499;27;119899;-78
2022/06/01 10:20:26;;;;;;;3.20;1.70;;;22.30;99.90;;;26.14;32.29;99403.88;5038167;27;129729;-74
2022/06/01 10:23:03;;;;;;;4.00;2.00;;;22.60;99.90;;;26.37;32.68;99391.22;5039995;27;129223;-76
2022/06/01 10:25:39;;;;;;;5.10;2.42;;;22.70;99.90;;;26.51;32.47;99396.56;5023967;27;119142;-73
2022/06/01 10:28:14;;;;;;;3.83;2.20;;;23.10;99.90;;;26.56;32.37;99398.06;5039262;27;119513;-76
2022/06/01 10:30:50;;;;;;;3.28;2.10;;;23.40;99.90;;;26.75;32.17;99396.56;5020876;27;129629;-79
2022/06/01 10:33:24;;;;;;;4.10;2.20;;;22.90;99.90;;;27.30;31.97;99390.78;5042198;27;128305;-79
2022/06/01 10:36:00;;;;;;;3.75;2.10;;;23.30;99.90;;;27.12;31.82;99385.59;5025689;27;118703;-78
2022/06/01 10:38:38;;;;;;;4.38;1.90;;;23.30;99.90;;;27.13;31.55;99374.03;5023398;27;119405;-77
2022/06/01 10:41:13;;;;;;;3.88;2.10;;;23.00;99.90;;;26.96;31.45;99386.25;5041431;27;129932;-75
2022/06/01 10:43:53;;;;;;;5.22;2.20;;;22.90;99.90;;;27.13;32.25;99379.59;5024596;27;128513;-78
2022/06/01 10:46:39;;;;;;;7.68;2.67;;;23.30;99.90;;;27.03;33.32;99377.78;5022896;27;121147;-78
2022/06/01 10:49:41;;;;;;;4.85;2.60;;;23.40;99.90;;;26.81;33.60;99361.47;5031269;27;120314;-79
2022/06/01 10:52:26;;;;;;;4.80;2.50;;;23.20;99.90;;;26.94;33.00;99367.19;5046304;27;129316;-79
2022/06/01 10:55:14;;;;;;;4.85;2.55;;;23.30;99.90;;;26.72;33.92;99355.69;5062669;27;129478;-78
2022/06/01 10:57:47;;;;;;;6.07;2.55;;;23.00;99.90;;;26.87;34.09;99361.78;5062656;27;119657;-76